Change Of Latitude — WDF6082 — position and weather

sailwx.info

Track history (hours):
 
Tides and Currents Weather Stations Pressure Air Temp Water Temp Dewpoint Dewpoint Depression Visibility Wind Speed Wind Dir Waves Ship Positions

Change Of Latitude

Owner: Donrah LLC, Bellingham, WA. More information available from US FCC via Universal Licensing System and Coast Guard Vessel Documentation Center.

Last reported at 2017-Oct-02 11:26 UTC. Time now 2017-Oct-20 10:45 UTC.
Position N 48°45' W 122°30'.
Warning: this ship's position is 17 days out of date.

Length 15 m.

Type: Pleasure craft. MMSI: 367470440.

Date/timePositionNaut miles runAvg speedWind from/ knotsBaromVisibWave heightAir tempDewpointWater temp
2017-Oct-02 11:26N 48°45' W 122°30'15 0.9
2017-Oct-01 19:24N 48°36' W 122°47'4 9.7
2017-Oct-01 19:00N 48°34' W 122°53'5 9.2
2017-Oct-01 18:30N 48°32' W 122°59'1 1.9
2017-Oct-01 17:55N 48°32' W 123°01'0 0.0
2017-Oct-01 17:19N 48°32' W 123°01'0 0.0
2017-Oct-01 16:55N 48°32' W 123°01'0 0.0
2017-Oct-01 16:19N 48°32' W 123°01'0 0.0
2017-Oct-01 15:55N 48°32' W 123°01'0 0.0
2017-Oct-01 14:43N 48°32' W 123°01'0 0.0
2017-Oct-01 14:13N 48°32' W 123°01'0 0.0
2017-Oct-01 13:55N 48°32' W 123°01'0 0.0
2017-Oct-01 13:25N 48°32' W 123°01'0 0.0
2017-Oct-01 12:55N 48°32' W 123°01'0 0.0
2017-Oct-01 12:28N 48°32' W 123°01'0 0.0
2017-Oct-01 11:55N 48°32' W 123°01'0 0.0
2017-Oct-01 11:25N 48°32' W 123°01'0 0.0
2017-Oct-01 10:58N 48°32' W 123°01'0 0.0
2017-Oct-01 10:25N 48°32' W 123°01'0 0.0
2017-Oct-01 09:55N 48°32' W 123°01'0 0.0
2017-Oct-01 09:25N 48°32' W 123°01'0 0.0
2017-Oct-01 08:58N 48°32' W 123°01'0 0.0
2017-Oct-01 08:28N 48°32' W 123°01'0 0.0
2017-Oct-01 07:58N 48°32' W 123°01'0 0.0
2017-Oct-01 07:28N 48°32' W 123°01'0 0.0
2017-Oct-01 06:58N 48°32' W 123°01'0 0.0
2017-Oct-01 06:28N 48°32' W 123°01'0 0.0
2017-Oct-01 05:58N 48°32' W 123°01'0 0.0
2017-Oct-01 05:28N 48°32' W 123°01'0 0.0
2017-Oct-01 04:58N 48°32' W 123°01'0 0.0
2017-Oct-01 04:28N 48°32' W 123°01'0 0.0
2017-Oct-01 03:55N 48°32' W 123°01'0 0.0
2017-Oct-01 03:25N 48°32' W 123°01'0 0.0
2017-Oct-01 02:58N 48°32' W 123°01'  
Track history (hours):
 
Tides and Currents Weather Stations Pressure Air Temp Water Temp Dewpoint Dewpoint Depression Visibility Wind Speed Wind Dir Waves Ship Positions

Change Of Latitude

Owner: Donrah LLC, Bellingham, WA. More information available from US FCC via Universal Licensing System and Coast Guard Vessel Documentation Center.

Last reported at 2017-Oct-02 11:26 UTC. Time now 2017-Oct-20 10:45 UTC.
Position N 48°45' W 122°30'.
Warning: this ship's position is 17 days out of date.

Length 15 m.

Type: Pleasure craft. MMSI: 367470440.

Date/timePositionNaut miles runAvg speedWind from/ knotsBaromVisibWave heightAir tempDewpointWater temp
2017-Oct-02 11:26N 48°45' W 122°30'15 0.9
2017-Oct-01 19:24N 48°36' W 122°47'4 9.7
2017-Oct-01 19:00N 48°34' W 122°53'5 9.2
2017-Oct-01 18:30N 48°32' W 122°59'1 1.9
2017-Oct-01 17:55N 48°32' W 123°01'0 0.0
2017-Oct-01 17:19N 48°32' W 123°01'0 0.0
2017-Oct-01 16:55N 48°32' W 123°01'0 0.0
2017-Oct-01 16:19N 48°32' W 123°01'0 0.0
2017-Oct-01 15:55N 48°32' W 123°01'0 0.0
2017-Oct-01 14:43N 48°32' W 123°01'0 0.0
2017-Oct-01 14:13N 48°32' W 123°01'0 0.0
2017-Oct-01 13:55N 48°32' W 123°01'0 0.0
2017-Oct-01 13:25N 48°32' W 123°01'0 0.0
2017-Oct-01 12:55N 48°32' W 123°01'0 0.0
2017-Oct-01 12:28N 48°32' W 123°01'0 0.0
2017-Oct-01 11:55N 48°32' W 123°01'0 0.0
2017-Oct-01 11:25N 48°32' W 123°01'0 0.0
2017-Oct-01 10:58N 48°32' W 123°01'0 0.0
2017-Oct-01 10:25N 48°32' W 123°01'0 0.0
2017-Oct-01 09:55N 48°32' W 123°01'0 0.0
2017-Oct-01 09:25N 48°32' W 123°01'0 0.0
2017-Oct-01 08:58N 48°32' W 123°01'0 0.0
2017-Oct-01 08:28N 48°32' W 123°01'0 0.0
2017-Oct-01 07:58N 48°32' W 123°01'0 0.0
2017-Oct-01 07:28N 48°32' W 123°01'0 0.0
2017-Oct-01 06:58N 48°32' W 123°01'0 0.0
2017-Oct-01 06:28N 48°32' W 123°01'0 0.0
2017-Oct-01 05:58N 48°32' W 123°01'0 0.0
2017-Oct-01 05:28N 48°32' W 123°01'0 0.0
2017-Oct-01 04:58N 48°32' W 123°01'0 0.0
2017-Oct-01 04:28N 48°32' W 123°01'0 0.0
2017-Oct-01 03:55N 48°32' W 123°01'0 0.0
2017-Oct-01 03:25N 48°32' W 123°01'0 0.0
2017-Oct-01 02:58N 48°32' W 123°01'  

Dump ship's entire track history